createdAt,value
2019-01-06T00:00:14.205Z,94.80
2019-01-06T00:02:44.287Z,94.70
2019-01-06T00:05:26.546Z,94.70
2019-01-06T00:08:08.275Z,94.70
2019-01-06T00:10:47.253Z,94.70
2019-01-06T00:13:17.234Z,94.70
2019-01-06T00:15:52.958Z,94.60
2019-01-06T00:18:41.323Z,94.40
2019-01-06T00:21:27.600Z,94.40
2019-01-06T00:24:03.893Z,94.20
2019-01-06T00:26:39.879Z,94.40
2019-01-06T00:29:27.331Z,94.40
2019-01-06T00:32:03.332Z,94.70
2019-01-06T00:34:45.736Z,94.40
2019-01-06T00:37:27.994Z,94.40
2019-01-06T00:40:15.734Z,94.30
2019-01-06T00:43:02.358Z,94.40
2019-01-06T00:45:48.777Z,94.40
2019-01-06T00:48:18.944Z,94.70
2019-01-06T00:51:05.394Z,94.40
2019-01-06T00:53:41.482Z,94.60
2019-01-06T00:56:13.846Z,94.50
2019-01-06T00:58:56.161Z,94.60
2019-01-06T01:01:35.239Z,94.40
2019-01-06T01:04:17.296Z,94.50
2019-01-06T01:06:50.104Z,94.90
2019-01-06T01:09:44.600Z,94.60
2019-01-06T01:12:29.976Z,94.90
2019-01-06T01:15:09.087Z,94.50
2019-01-06T01:17:45.138Z,94.70
2019-01-06T01:20:20.855Z,94.70
2019-01-06T01:23:02.831Z,94.60
2019-01-06T01:25:32.796Z,94.60
2019-01-06T01:28:18.770Z,94.60
2019-01-06T01:30:54.851Z,94.70
2019-01-06T01:33:37.103Z,94.40
2019-01-06T01:36:08.707Z,94.40
2019-01-06T01:38:38.654Z,94.50
2019-01-06T01:41:11.506Z,94.60
2019-01-06T01:43:41.560Z,94.60
2019-01-06T01:46:27.605Z,94.50
2019-01-06T01:49:12.899Z,94.70
2019-01-06T01:51:55.044Z,94.60
2019-01-06T01:54:39.944Z,94.50
2019-01-06T01:57:15.746Z,95.00
2019-01-06T01:59:58.030Z,94.50
2019-01-06T02:02:37.390Z,94.60
2019-01-06T02:05:07.847Z,94.60
2019-01-06T02:07:54.211Z,94.70
2019-01-06T02:10:36.417Z,94.80
2019-01-06T02:13:06.578Z,94.70
2019-01-06T02:15:42.260Z,95.10
2019-01-06T02:18:15.247Z,94.70
2019-01-06T02:20:59.947Z,94.80
2019-01-06T02:23:39.184Z,94.50
2019-01-06T02:26:18.323Z,94.40
2019-01-06T02:28:54.052Z,94.40
2019-01-06T02:31:27.052Z,94.40
2019-01-06T02:34:09.528Z,94.50
2019-01-06T02:36:42.510Z,94.60
2019-01-06T02:39:24.357Z,94.60
2019-01-06T02:42:12.696Z,94.50
2019-01-06T02:44:45.848Z,94.60
2019-01-06T02:47:16.005Z,94.60
2019-01-06T02:50:01.051Z,94.50
2019-01-06T02:52:33.767Z,94.60
2019-01-06T02:55:20.084Z,94.80
2019-01-06T02:58:06.431Z,94.70
2019-01-06T03:00:45.163Z,94.60
2019-01-06T03:03:33.525Z,94.70
2019-01-06T03:06:03.876Z,94.60
2019-01-06T03:08:43.206Z,94.60
2019-01-06T03:11:19.358Z,94.70
2019-01-06T03:13:52.127Z,94.80
2019-01-06T03:16:31.306Z,94.90
2019-01-06T03:19:01.390Z,95.00
2019-01-06T03:21:40.381Z,94.80
2019-01-06T03:24:13.522Z,95.00
2019-01-06T03:26:59.741Z,94.90
2019-01-06T03:29:41.873Z,94.80
2019-01-06T03:32:24.037Z,94.80
2019-01-06T03:35:04.478Z,94.80
2019-01-06T03:37:51.047Z,94.90
2019-01-06T03:40:27.202Z,94.80
2019-01-06T03:45:37.977Z,94.60
2019-01-06T03:48:25.980Z,94.60
2019-01-06T03:50:56.100Z,94.70
2019-01-06T03:53:44.154Z,94.40
2019-01-06T03:56:30.767Z,94.70
2019-01-06T03:59:03.280Z,94.60
2019-01-06T04:01:33.267Z,94.50
2019-01-06T04:04:15.315Z,94.40
2019-01-06T04:07:01.200Z,94.50
2019-01-06T04:09:37.671Z,94.70
2019-01-06T04:12:10.354Z,94.50
2019-01-06T04:14:56.379Z,94.60
2019-01-06T04:17:32.307Z,94.50
2019-01-06T04:20:18.720Z,94.40
2019-01-06T04:23:07.242Z,94.60
2019-01-06T04:25:53.792Z,94.20
2019-01-06T04:28:26.302Z,94.40
2019-01-06T04:31:11.503Z,94.30
2019-01-06T04:33:57.601Z,94.20
2019-01-06T04:36:43.755Z,94.20
2019-01-06T04:39:13.662Z,94.20
2019-01-06T04:41:43.715Z,94.30
2019-01-06T04:44:13.698Z,94.30
2019-01-06T04:47:00.357Z,94.20
2019-01-06T04:49:36.227Z,94.40
2019-01-06T04:52:18.625Z,94.50
2019-01-06T04:54:57.772Z,94.70
2019-01-06T04:57:34.241Z,94.50
2019-01-06T05:00:19.386Z,94.60
2019-01-06T05:03:07.691Z,94.60
2019-01-06T05:05:53.843Z,94.80
2019-01-06T05:08:30.055Z,94.80
2019-01-06T05:11:00.141Z,94.60
2019-01-06T05:13:33.001Z,94.70
2019-01-06T05:16:20.276Z,94.80
2019-01-06T05:18:50.256Z,94.70
2019-01-06T05:21:36.325Z,94.60
2019-01-06T05:24:09.301Z,94.90
2019-01-06T05:26:56.005Z,94.50
2019-01-06T05:29:26.058Z,94.60
2019-01-06T05:31:58.741Z,94.70
2019-01-06T05:34:47.003Z,94.90
2019-01-06T05:37:20.327Z,95.00
2019-01-06T05:39:59.129Z,95.00
2019-01-06T05:42:47.766Z,94.90
2019-01-06T05:45:34.075Z,94.90
2019-01-06T05:48:20.290Z,95.10
2019-01-06T05:50:50.281Z,95.00
2019-01-06T05:53:35.446Z,95.00
2019-01-06T05:56:08.076Z,95.10
2019-01-06T05:58:41.311Z,94.90
2019-01-06T06:01:26.452Z,95.10
2019-01-06T06:04:12.813Z,95.00
2019-01-06T06:06:45.954Z,94.90
2019-01-06T06:09:19.004Z,95.00
2019-01-06T06:12:03.863Z,95.00
2019-01-06T06:14:36.817Z,94.80
2019-01-06T06:17:22.362Z,94.80
2019-01-06T06:19:58.220Z,94.60
2019-01-06T06:22:46.960Z,94.70
2019-01-06T06:25:19.575Z,95.10
2019-01-06T06:27:58.758Z,94.80
2019-01-06T06:30:28.711Z,95.00
2019-01-06T06:33:07.822Z,95.00
2019-01-06T06:35:53.027Z,95.30
2019-01-06T06:38:25.911Z,95.40
2019-01-06T06:41:13.624Z,95.20
2019-01-06T06:44:01.941Z,95.10
2019-01-06T06:46:38.138Z,95.20
2019-01-06T06:49:11.294Z,95.40
2019-01-06T06:51:57.516Z,95.60
2019-01-06T06:54:36.583Z,95.50
2019-01-06T06:57:49.293Z,95.60
2019-01-06T07:00:53.401Z,95.80
2019-01-06T07:03:54.549Z,96.20
2019-01-06T07:06:27.651Z,96.30
2019-01-06T07:09:14.328Z,96.10
2019-01-06T07:12:00.591Z,96.30
2019-01-06T07:14:30.765Z,96.20
2019-01-06T07:17:46.648Z,96.30
2019-01-06T07:20:24.302Z,96.30
2019-01-06T07:22:54.305Z,96.50
2019-01-06T07:25:27.314Z,96.40
2019-01-06T07:28:06.732Z,96.30
2019-01-06T07:30:48.481Z,96.40
2019-01-06T07:33:24.199Z,96.10
2019-01-06T07:36:12.209Z,95.90
2019-01-06T07:38:58.478Z,96.00
2019-01-06T07:41:34.629Z,96.00
2019-01-06T07:44:07.698Z,96.00
2019-01-06T07:46:54.177Z,96.10
2019-01-06T07:49:24.188Z,96.00
2019-01-06T07:52:09.437Z,96.30
2019-01-06T07:54:51.441Z,95.90
2019-01-06T07:57:36.439Z,96.00
2019-01-06T08:00:15.183Z,95.90
2019-01-06T08:02:51.282Z,96.20
2019-01-06T08:05:33.699Z,95.90
2019-01-06T08:08:06.584Z,95.80
2019-01-06T08:10:39.695Z,95.90
2019-01-06T08:13:09.670Z,95.90
2019-01-06T08:15:45.595Z,95.80
2019-01-06T08:18:21.593Z,95.80
2019-01-06T08:20:51.566Z,96.20
2019-01-06T08:23:24.184Z,96.10
2019-01-06T08:25:54.284Z,96.20
2019-01-06T08:28:36.017Z,96.30
2019-01-06T08:31:11.929Z,96.00
2019-01-06T08:33:42.068Z,96.00
2019-01-06T08:36:28.511Z,96.00
2019-01-06T08:38:58.466Z,96.10
2019-01-06T08:41:28.431Z,96.30
2019-01-06T08:44:01.483Z,96.30
2019-01-06T08:46:49.941Z,95.90
2019-01-06T08:49:19.982Z,96.10
2019-01-06T08:51:52.912Z,96.00
2019-01-06T08:54:39.293Z,96.10
2019-01-06T08:57:09.251Z,95.90
2019-01-06T08:59:45.274Z,96.10
2019-01-06T09:02:33.830Z,96.60
2019-01-06T09:05:09.726Z,95.50
2019-01-06T09:07:45.868Z,95.20
2019-01-06T09:10:30.878Z,95.20
2019-01-06T09:13:06.897Z,95.30
2019-01-06T09:15:39.492Z,95.40
2019-01-06T09:18:12.546Z,95.60
2019-01-06T09:20:51.697Z,95.60
2019-01-06T09:23:27.543Z,95.70
2019-01-06T09:26:10.522Z,95.80
2019-01-06T09:28:56.810Z,95.70
2019-01-06T09:31:43.296Z,95.50
2019-01-06T09:34:16.159Z,95.70
2019-01-06T09:37:02.422Z,96.00
2019-01-06T09:39:32.480Z,96.00
2019-01-06T09:42:18.840Z,96.10
2019-01-06T09:44:48.790Z,95.80
2019-01-06T09:47:21.521Z,95.80
2019-01-06T09:49:51.675Z,96.00
2019-01-06T09:52:39.720Z,96.10
2019-01-06T09:55:24.577Z,95.90
2019-01-06T09:57:54.564Z,95.60
2019-01-06T10:00:41.196Z,95.70
2019-01-06T10:03:14.117Z,95.90
2019-01-06T10:05:44.111Z,95.90
2019-01-06T10:08:14.081Z,96.00
2019-01-06T10:10:52.904Z,96.20
2019-01-06T10:13:25.951Z,96.30
2019-01-06T10:16:07.986Z,96.20
2019-01-06T10:18:50.268Z,96.00
2019-01-06T10:21:35.767Z,95.80
2019-01-06T10:24:08.994Z,96.10
2019-01-06T10:26:54.461Z,96.30
2019-01-06T10:29:26.995Z,96.20
2019-01-06T10:32:15.395Z,96.10
2019-01-06T10:34:51.104Z,96.20
2019-01-06T10:37:27.162Z,96.30
2019-01-06T10:40:13.514Z,96.10
2019-01-06T10:43:01.509Z,96.20
2019-01-06T10:45:34.138Z,96.30
2019-01-06T10:48:10.086Z,96.40
2019-01-06T10:50:56.845Z,96.30
2019-01-06T10:53:26.852Z,96.20
2019-01-06T10:56:12.647Z,96.20
2019-01-06T10:58:58.098Z,95.90
2019-01-06T11:01:40.373Z,95.90
2019-01-06T11:04:13.398Z,96.20
2019-01-06T11:06:49.295Z,95.80
2019-01-06T11:09:35.300Z,96.30
2019-01-06T11:12:05.390Z,96.00
2019-01-06T11:14:35.499Z,95.90
2019-01-06T11:17:17.458Z,95.80
2019-01-06T11:20:03.818Z,95.70
2019-01-06T11:22:40.057Z,95.60
2019-01-06T11:25:11.037Z,95.60
2019-01-06T11:27:46.750Z,95.80
2019-01-06T11:30:22.675Z,95.90
2019-01-06T11:32:58.544Z,95.80
2019-01-06T11:35:34.233Z,96.00
2019-01-06T11:38:04.397Z,96.20
2019-01-06T11:40:50.940Z,96.40
2019-01-06T11:43:36.848Z,96.40
2019-01-06T11:46:06.893Z,96.40
2019-01-06T11:48:40.132Z,96.40
2019-01-06T11:51:27.317Z,96.50
2019-01-06T11:54:12.884Z,96.40
2019-01-06T11:56:54.826Z,96.40
2019-01-06T11:59:27.486Z,96.40
2019-01-06T12:02:09.660Z,96.00
2019-01-06T12:04:55.688Z,96.50
2019-01-06T12:07:42.500Z,96.40
2019-01-06T12:10:12.448Z,96.60
2019-01-06T12:12:58.543Z,96.70
2019-01-06T12:15:46.643Z,96.70
2019-01-06T12:18:33.294Z,97.10
2019-01-06T12:21:12.266Z,96.80
2019-01-06T12:23:42.260Z,97.10
2019-01-06T12:26:12.630Z,97.10
2019-01-06T12:28:59.033Z,97.40
2019-01-06T12:31:31.928Z,97.10
2019-01-06T12:34:19.945Z,97.00
2019-01-06T12:36:55.799Z,97.10
2019-01-06T12:39:25.939Z,97.10
2019-01-06T12:41:56.112Z,96.90
2019-01-06T12:44:31.685Z,96.80
2019-01-06T12:47:01.836Z,96.80
2019-01-06T12:49:49.751Z,96.70
2019-01-06T12:52:19.683Z,96.80
2019-01-06T12:54:49.759Z,96.00
2019-01-06T12:57:19.890Z,96.10
2019-01-06T13:00:01.836Z,96.70
2019-01-06T13:02:48.290Z,96.20
2019-01-06T13:05:34.381Z,96.20
2019-01-06T13:08:20.458Z,96.20
2019-01-06T13:11:02.786Z,96.00
2019-01-06T13:13:37.081Z,96.10
2019-01-06T13:16:13.378Z,96.20
2019-01-06T13:18:43.517Z,96.30
2019-01-06T13:21:19.832Z,96.40
2019-01-06T13:23:50.069Z,96.20
2019-01-06T13:26:32.505Z,96.60
2019-01-06T13:29:08.549Z,96.60
2019-01-06T13:31:54.663Z,96.60
2019-01-06T13:34:41.190Z,96.40
2019-01-06T13:37:17.291Z,96.60
2019-01-06T13:40:03.646Z,96.60
2019-01-06T13:42:49.886Z,96.40
2019-01-06T13:45:25.794Z,96.50
2019-01-06T13:48:12.037Z,96.30
2019-01-06T13:50:42.100Z,96.30
2019-01-06T13:53:20.953Z,96.20
2019-01-06T13:55:54.011Z,96.20
2019-01-06T13:58:24.483Z,96.90
2019-01-06T14:01:03.278Z,96.70
2019-01-06T14:03:49.740Z,96.50
2019-01-06T14:06:35.878Z,96.60
2019-01-06T14:09:18.590Z,96.60
2019-01-06T14:11:51.387Z,96.40
2019-01-06T14:14:33.632Z,96.50
2019-01-06T14:17:20.339Z,96.70
2019-01-06T14:19:50.427Z,96.70
2019-01-06T14:22:26.643Z,96.60
2019-01-06T14:25:12.579Z,96.60
2019-01-06T14:27:48.676Z,96.50
2019-01-06T14:30:18.727Z,96.80
2019-01-06T14:33:00.705Z,96.70
2019-01-06T14:35:33.925Z,96.60
2019-01-06T14:38:20.396Z,96.50
2019-01-06T14:40:53.172Z,96.60
2019-01-06T14:43:23.089Z,96.50
2019-01-06T14:45:53.095Z,96.40
2019-01-06T15:55:30.084Z,96.00
2019-01-06T15:58:24.490Z,96.10
2019-01-06T16:10:08.838Z,96.80
2019-01-06T16:12:44.809Z,96.80
2019-01-06T16:15:14.818Z,96.70
2019-01-06T16:17:57.062Z,96.60
2019-01-06T16:20:44.124Z,96.80
2019-01-06T16:23:20.039Z,97.00
2019-01-06T16:28:37.317Z,97.20
2019-01-06T16:31:19.056Z,97.30
2019-01-06T16:33:51.572Z,97.30
2019-01-06T16:36:38.225Z,97.30
2019-01-06T16:39:26.193Z,97.30
2019-01-06T16:42:02.786Z,97.30
2019-01-06T16:44:44.985Z,97.20
2019-01-06T16:47:17.566Z,97.30
2019-01-06T16:50:03.893Z,97.40
2019-01-06T16:52:37.053Z,97.10
2019-01-06T16:55:23.688Z,96.60
2019-01-06T16:58:10.096Z,96.70
2019-01-06T17:00:40.190Z,96.60
2019-01-06T17:03:15.980Z,96.50
2019-01-06T17:06:02.618Z,96.00
2019-01-06T17:08:33.069Z,96.10
2019-01-06T17:11:12.401Z,96.20
2019-01-06T17:13:42.545Z,96.40
2019-01-06T17:16:12.618Z,96.40
2019-01-06T17:18:48.763Z,96.20
2019-01-06T17:21:31.141Z,96.10
2019-01-06T17:24:17.499Z,95.80
2019-01-06T17:26:47.815Z,95.80
2019-01-06T17:29:17.831Z,96.00
2019-01-06T17:31:50.813Z,96.20
2019-01-06T17:34:20.893Z,96.50
2019-01-06T17:37:07.050Z,96.80
2019-01-06T17:39:53.822Z,96.80
2019-01-06T17:42:40.197Z,96.40
2019-01-06T17:45:18.998Z,96.40
2019-01-06T17:47:58.173Z,96.60
2019-01-06T17:50:28.307Z,96.50
2019-01-06T17:53:14.573Z,96.30
2019-01-06T17:55:59.708Z,96.40
2019-01-06T17:58:32.291Z,96.40
2019-01-06T18:01:08.420Z,96.20
2019-01-06T18:03:50.039Z,96.20
2019-01-06T18:06:36.725Z,96.40
2019-01-06T18:09:23.554Z,96.40
2019-01-06T18:11:59.779Z,96.30
2019-01-06T18:14:33.297Z,95.90
2019-01-06T18:17:12.475Z,96.10
2019-01-06T18:19:47.602Z,96.30
2019-01-06T18:22:23.787Z,96.20
2019-01-06T18:25:02.981Z,96.60
2019-01-06T18:27:45.581Z,96.00
2019-01-06T18:30:18.554Z,96.00
2019-01-06T18:32:54.339Z,96.00
2019-01-06T18:35:27.234Z,95.90
2019-01-06T18:38:13.830Z,95.60
2019-01-06T18:40:44.007Z,95.70
2019-01-06T18:43:28.700Z,95.70
2019-01-06T18:46:16.704Z,95.50
2019-01-06T18:49:03.105Z,95.20
2019-01-06T18:51:47.724Z,95.30
2019-01-06T18:54:34.293Z,95.30
2019-01-06T18:57:22.746Z,95.40
2019-01-06T19:00:09.168Z,95.70
2019-01-06T19:02:48.115Z,95.30
2019-01-06T19:05:34.472Z,95.40
2019-01-06T19:08:07.597Z,95.40
2019-01-06T19:10:37.608Z,95.30
2019-01-06T19:13:13.356Z,95.30
2019-01-06T19:15:43.494Z,95.20
2019-01-06T19:18:13.799Z,95.30
2019-01-06T19:20:52.979Z,95.50
2019-01-06T19:23:35.255Z,95.60
2019-01-06T19:26:21.594Z,95.70
2019-01-06T19:28:57.828Z,95.90
2019-01-06T19:31:34.330Z,95.50
2019-01-06T19:34:04.538Z,95.70
2019-01-06T19:36:43.038Z,95.70
2019-01-06T19:39:31.601Z,95.80
2019-01-06T19:42:18.372Z,96.00
2019-01-06T19:44:48.492Z,96.00
2019-01-06T19:47:27.387Z,96.00
2019-01-06T19:49:59.870Z,96.00
2019-01-06T19:52:29.884Z,95.70
2019-01-06T19:55:15.850Z,96.00
2019-01-06T19:58:02.053Z,96.10
2019-01-06T20:00:34.613Z,96.30
2019-01-06T20:03:19.747Z,96.20
2019-01-06T20:05:49.881Z,95.90
2019-01-06T20:08:25.774Z,95.60
2019-01-06T20:10:58.568Z,95.70
2019-01-06T20:13:31.408Z,95.70
2019-01-06T20:16:07.053Z,95.70
2019-01-06T20:18:53.167Z,96.20
2019-01-06T20:21:23.239Z,96.40
2019-01-06T20:23:59.480Z,96.20
2019-01-06T20:26:44.935Z,96.40
2019-01-06T20:29:31.292Z,96.30
2019-01-06T20:32:04.461Z,96.10
2019-01-06T20:34:36.158Z,96.10
2019-01-06T20:37:18.449Z,96.20
2019-01-06T20:40:07.347Z,96.30
2019-01-06T20:42:51.406Z,96.10
2019-01-06T20:45:30.385Z,96.10
2019-01-06T20:48:00.418Z,96.30
2019-01-06T20:50:47.139Z,96.10
2019-01-06T20:53:33.283Z,96.10
2019-01-06T20:56:19.366Z,96.10
2019-01-06T20:59:06.214Z,95.70
2019-01-06T21:01:53.154Z,95.70
2019-01-06T21:04:23.202Z,96.00
2019-01-06T21:06:56.598Z,96.10
2019-01-06T21:09:38.641Z,96.00
2019-01-06T21:12:23.851Z,96.30
2019-01-06T21:15:06.453Z,96.20
2019-01-06T21:17:36.418Z,96.30
2019-01-06T21:20:07.967Z,96.20
2019-01-06T21:22:40.563Z,95.80
2019-01-06T21:25:10.931Z,95.70
2019-01-06T21:27:43.696Z,95.90
2019-01-06T21:30:16.760Z,96.10
2019-01-06T21:32:46.910Z,95.80
2019-01-06T21:35:16.984Z,95.60
2019-01-06T21:37:47.351Z,96.10
2019-01-06T21:40:29.436Z,96.20
2019-01-06T21:43:15.760Z,95.80
2019-01-06T21:45:48.609Z,96.00
2019-01-06T21:48:34.916Z,96.10
2019-01-06T21:51:23.420Z,96.20
2019-01-06T21:54:03.953Z,96.00
2019-01-06T21:56:45.319Z,96.30
2019-01-06T21:59:21.086Z,96.10
2019-01-06T22:01:51.273Z,96.10
2019-01-06T22:04:27.200Z,95.80
2019-01-06T22:07:03.422Z,95.80
2019-01-06T22:09:36.044Z,95.70
2019-01-06T22:12:06.065Z,95.80
2019-01-06T22:14:52.620Z,96.00
2019-01-06T22:17:39.182Z,95.90
2019-01-06T22:20:09.263Z,95.80
2019-01-06T22:22:55.794Z,95.90
2019-01-06T22:25:42.145Z,95.80
2019-01-06T22:28:24.157Z,95.50
2019-01-06T22:31:10.682Z,95.80
2019-01-06T22:33:40.787Z,95.60
2019-01-06T22:36:27.418Z,95.60
2019-01-06T22:39:10.030Z,95.70
2019-01-06T22:41:45.831Z,95.90
2019-01-06T22:44:15.909Z,95.90
2019-01-06T22:47:02.306Z,96.00
2019-01-06T22:49:35.064Z,95.60
2019-01-06T22:52:08.350Z,96.00
2019-01-06T22:54:50.316Z,96.00
2019-01-06T22:57:26.205Z,96.30
2019-01-06T23:00:11.224Z,96.20
2019-01-06T23:02:41.270Z,96.30
2019-01-06T23:05:27.385Z,96.50
2019-01-06T23:08:11.190Z,96.50
2019-01-06T23:10:44.069Z,96.50
2019-01-06T23:13:16.694Z,96.40
2019-01-06T23:16:05.436Z,96.50
2019-01-06T23:18:52.316Z,96.30
2019-01-06T23:21:38.689Z,96.30
2019-01-06T23:24:14.891Z,96.00
2019-01-06T23:26:53.885Z,96.10
2019-01-06T23:29:31.091Z,96.20
2019-01-06T23:32:01.130Z,96.50
2019-01-06T23:34:34.505Z,96.20
2019-01-06T23:37:07.408Z,96.10
2019-01-06T23:39:37.503Z,96.20
2019-01-06T23:42:10.405Z,96.60
2019-01-06T23:44:55.717Z,96.70
2019-01-06T23:47:28.676Z,96.70
2019-01-06T23:50:15.081Z,96.70
2019-01-06T23:52:57.537Z,96.60
2019-01-06T23:55:27.597Z,96.20
2019-01-06T23:58:00.257Z,96.10
